Columbus, Ohio
Traffic Map
Current Weather Conditions
Columbus, Ohio
Broken Clouds
Broken Clouds
24°
Feels Like: 24°
Wind Chill: 24° Ceiling: 25000
Heat Index: 24° Visibility: 10mi
Dew Point: Wind: 7mph
Humidity: 35% Direction: ° ()
Pressure: 30.03in Gusts: 0mph
Raw Report DataKCMH 181651Z VRB06KT 10SM FEW060 SCT200 BKN250 24/08 A3003 RMK AO2 SLP164 T02440078
Traffic Incident Summary
Active as of:
Severity:
Category:
InformationThere was an issue retrieving the traffic information for this location. Please try a different location or try again shortly.
Advertisements
Track Severe Weather on mobile